sensor_id;sensor_type;location;lat;lon;timestamp;temperature;humidity
3705;DHT22;1868;48.918;9.438;2023-05-24T00:00:48;14.20;97.40
3705;DHT22;1868;48.918;9.438;2023-05-24T00:03:19;14.20;97.40
3705;DHT22;1868;48.918;9.438;2023-05-24T00:05:50;14.30;97.40
3705;DHT22;1868;48.918;9.438;2023-05-24T00:08:21;14.20;97.40
3705;DHT22;1868;48.918;9.438;2023-05-24T00:10:50;14.20;97.40
3705;DHT22;1868;48.918;9.438;2023-05-24T00:13:19;14.20;97.40
3705;DHT22;1868;48.918;9.438;2023-05-24T00:15:48;14.20;97.40
3705;DHT22;1868;48.918;9.438;2023-05-24T00:18:16;14.20;97.40
3705;DHT22;1868;48.918;9.438;2023-05-24T00:20:45;14.10;97.40
3705;DHT22;1868;48.918;9.438;2023-05-24T00:23:17;14.10;97.40
3705;DHT22;1868;48.918;9.438;2023-05-24T00:25:46;14.10;97.40
3705;DHT22;1868;48.918;9.438;2023-05-24T00:28:15;14.10;97.40
3705;DHT22;1868;48.918;9.438;2023-05-24T00:30:44;14.10;97.40
3705;DHT22;1868;48.918;9.438;2023-05-24T00:33:17;14.10;97.40
3705;DHT22;1868;48.918;9.438;2023-05-24T00:35:51;14.10;97.40
3705;DHT22;1868;48.918;9.438;2023-05-24T00:38:24;14.10;97.40
3705;DHT22;1868;48.918;9.438;2023-05-24T00:40:54;14.10;97.40
3705;DHT22;1868;48.918;9.438;2023-05-24T00:43:23;14.00;97.40
3705;DHT22;1868;48.918;9.438;2023-05-24T00:46:09;14.00;97.40
3705;DHT22;1868;48.918;9.438;2023-05-24T00:48:41;13.90;97.40
3705;DHT22;1868;48.918;9.438;2023-05-24T00:51:12;13.80;97.40
3705;DHT22;1868;48.918;9.438;2023-05-24T00:53:44;13.80;97.40
3705;DHT22;1868;48.918;9.438;2023-05-24T00:56:15;13.70;97.40
3705;DHT22;1868;48.918;9.438;2023-05-24T00:58:46;13.70;97.40
3705;DHT22;1868;48.918;9.438;2023-05-24T01:01:18;13.70;97.40
3705;DHT22;1868;48.918;9.438;2023-05-24T01:03:47;13.60;97.40
3705;DHT22;1868;48.918;9.438;2023-05-24T01:06:16;13.60;97.40
3705;DHT22;1868;48.918;9.438;2023-05-24T01:09:07;13.50;97.40
3705;DHT22;1868;48.918;9.438;2023-05-24T01:11:49;13.40;97.40
3705;DHT22;1868;48.918;9.438;2023-05-24T01:14:43;13.30;97.40
3705;DHT22;1868;48.918;9.438;2023-05-24T01:17:21;13.10;97.40
3705;DHT22;1868;48.918;9.438;2023-05-24T01:19:55;13.00;97.40
3705;DHT22;1868;48.918;9.438;2023-05-24T01:22:45;12.90;97.40
3705;DHT22;1868;48.918;9.438;2023-05-24T01:28:23;12.70;97.40
3705;DHT22;1868;48.918;9.438;2023-05-24T01:30:53;12.70;97.40
3705;DHT22;1868;48.918;9.438;2023-05-24T01:33:23;12.60;97.40
3705;DHT22;1868;48.918;9.438;2023-05-24T01:35:52;12.60;97.40
3705;DHT22;1868;48.918;9.438;2023-05-24T01:38:21;12.50;97.40
3705;DHT22;1868;48.918;9.438;2023-05-24T01:40:55;12.50;97.40
3705;DHT22;1868;48.918;9.438;2023-05-24T01:43:36;12.50;97.40
3705;DHT22;1868;48.918;9.438;2023-05-24T01:46:12;12.40;97.40
3705;DHT22;1868;48.918;9.438;2023-05-24T01:48:58;12.40;97.40
3705;DHT22;1868;48.918;9.438;2023-05-24T01:51:38;12.40;97.40
3705;DHT22;1868;48.918;9.438;2023-05-24T01:54:11;12.30;97.40
3705;DHT22;1868;48.918;9.438;2023-05-24T01:56:44;12.30;97.40
3705;DHT22;1868;48.918;9.438;2023-05-24T01:59:16;12.30;97.40
3705;DHT22;1868;48.918;9.438;2023-05-24T02:01:46;12.30;97.40
3705;DHT22;1868;48.918;9.438;2023-05-24T02:04:17;12.30;97.40
3705;DHT22;1868;48.918;9.438;2023-05-24T02:06:47;12.20;97.40
3705;DHT22;1868;48.918;9.438;2023-05-24T02:09:17;12.20;97.40
3705;DHT22;1868;48.918;9.438;2023-05-24T02:11:49;12.20;97.40
3705;DHT22;1868;48.918;9.438;2023-05-24T02:14:19;12.20;97.40
3705;DHT22;1868;48.918;9.438;2023-05-24T02:16:47;12.10;97.40
3705;DHT22;1868;48.918;9.438;2023-05-24T02:19:18;12.10;97.40
3705;DHT22;1868;48.918;9.438;2023-05-24T02:21:47;12.20;97.40
3705;DHT22;1868;48.918;9.438;2023-05-24T02:24:17;12.20;97.40
3705;DHT22;1868;48.918;9.438;2023-05-24T02:26:46;12.20;97.40
3705;DHT22;1868;48.918;9.438;2023-05-24T02:29:15;12.20;97.40
3705;DHT22;1868;48.918;9.438;2023-05-24T02:31:49;12.20;97.40
3705;DHT22;1868;48.918;9.438;2023-05-24T02:34:22;12.20;97.40
3705;DHT22;1868;48.918;9.438;2023-05-24T02:36:51;12.30;97.40
3705;DHT22;1868;48.918;9.438;2023-05-24T02:39:22;12.20;97.40
3705;DHT22;1868;48.918;9.438;2023-05-24T02:41:50;12.20;97.40
3705;DHT22;1868;48.918;9.438;2023-05-24T02:44:19;12.10;97.40
3705;DHT22;1868;48.918;9.438;2023-05-24T02:46:51;12.10;97.40
3705;DHT22;1868;48.918;9.438;2023-05-24T02:49:20;12.10;97.40
3705;DHT22;1868;48.918;9.438;2023-05-24T02:51:49;12.10;97.40
3705;DHT22;1868;48.918;9.438;2023-05-24T02:54:18;12.10;97.40
3705;DHT22;1868;48.918;9.438;2023-05-24T02:56:47;12.10;97.40
3705;DHT22;1868;48.918;9.438;2023-05-24T02:59:16;12.10;97.40
3705;DHT22;1868;48.918;9.438;2023-05-24T03:01:47;12.00;97.40
3705;DHT22;1868;48.918;9.438;2023-05-24T03:04:18;12.00;97.40
3705;DHT22;1868;48.918;9.438;2023-05-24T03:06:47;12.00;97.40
3705;DHT22;1868;48.918;9.438;2023-05-24T03:09:17;12.00;97.40
3705;DHT22;1868;48.918;9.438;2023-05-24T03:11:46;12.00;97.40
3705;DHT22;1868;48.918;9.438;2023-05-24T03:14:15;11.90;97.40
3705;DHT22;1868;48.918;9.438;2023-05-24T03:16:48;11.90;97.40
3705;DHT22;1868;48.918;9.438;2023-05-24T03:19:19;11.90;97.40
3705;DHT22;1868;48.918;9.438;2023-05-24T03:21:47;11.90;97.40
3705;DHT22;1868;48.918;9.438;2023-05-24T03:24:16;11.90;97.40
3705;DHT22;1868;48.918;9.438;2023-05-24T03:26:47;11.90;97.40
3705;DHT22;1868;48.918;9.438;2023-05-24T03:29:16;11.80;97.40
3705;DHT22;1868;48.918;9.438;2023-05-24T03:31:45;11.80;97.40
3705;DHT22;1868;48.918;9.438;2023-05-24T03:34:14;11.80;97.40
3705;DHT22;1868;48.918;9.438;2023-05-24T03:36:44;11.80;97.40
3705;DHT22;1868;48.918;9.438;2023-05-24T03:39:13;11.80;97.40
3705;DHT22;1868;48.918;9.438;2023-05-24T03:42:03;11.70;97.40
3705;DHT22;1868;48.918;9.438;2023-05-24T03:44:33;11.70;97.40
3705;DHT22;1868;48.918;9.438;2023-05-24T03:47:05;11.70;97.40
3705;DHT22;1868;48.918;9.438;2023-05-24T03:49:34;11.70;97.40
3705;DHT22;1868;48.918;9.438;2023-05-24T03:52:04;11.60;97.40
3705;DHT22;1868;48.918;9.438;2023-05-24T03:54:35;11.60;97.40
3705;DHT22;1868;48.918;9.438;2023-05-24T03:57:04;11.60;97.40
3705;DHT22;1868;48.918;9.438;2023-05-24T03:59:35;11.60;97.40
3705;DHT22;1868;48.918;9.438;2023-05-24T04:02:08;11.60;97.40
3705;DHT22;1868;48.918;9.438;2023-05-24T04:04:37;11.60;97.40
3705;DHT22;1868;48.918;9.438;2023-05-24T04:07:07;11.60;97.40
3705;DHT22;1868;48.918;9.438;2023-05-24T04:09:38;11.70;97.40
3705;DHT22;1868;48.918;9.438;2023-05-24T04:12:07;11.70;97.40
3705;DHT22;1868;48.918;9.438;2023-05-24T04:14:40;11.70;97.40
3705;DHT22;1868;48.918;9.438;2023-05-24T04:17:09;11.70;97.40
3705;DHT22;1868;48.918;9.438;2023-05-24T04:19:42;11.70;97.40
3705;DHT22;1868;48.918;9.438;2023-05-24T04:22:19;11.80;97.40
3705;DHT22;1868;48.918;9.438;2023-05-24T04:24:51;11.80;97.40
3705;DHT22;1868;48.918;9.438;2023-05-24T04:27:20;11.80;97.40
3705;DHT22;1868;48.918;9.438;2023-05-24T04:29:49;11.80;97.40
3705;DHT22;1868;48.918;9.438;2023-05-24T04:32:19;11.80;97.40
3705;DHT22;1868;48.918;9.438;2023-05-24T04:34:49;11.90;97.40
3705;DHT22;1868;48.918;9.438;2023-05-24T04:37:22;11.90;97.40
3705;DHT22;1868;48.918;9.438;2023-05-24T04:39:51;11.90;97.40
3705;DHT22;1868;48.918;9.438;2023-05-24T04:42:20;11.90;97.40
3705;DHT22;1868;48.918;9.438;2023-05-24T04:44:48;11.90;97.40
3705;DHT22;1868;48.918;9.438;2023-05-24T04:47:17;11.90;97.40
3705;DHT22;1868;48.918;9.438;2023-05-24T04:49:46;11.90;97.40
3705;DHT22;1868;48.918;9.438;2023-05-24T04:52:16;12.00;97.40
3705;DHT22;1868;48.918;9.438;2023-05-24T04:54:47;12.00;97.40
3705;DHT22;1868;48.918;9.438;2023-05-24T04:57:17;12.00;97.40
3705;DHT22;1868;48.918;9.438;2023-05-24T04:59:46;12.00;97.40
3705;DHT22;1868;48.918;9.438;2023-05-24T05:02:14;12.00;97.40
3705;DHT22;1868;48.918;9.438;2023-05-24T05:04:43;12.00;97.40
3705;DHT22;1868;48.918;9.438;2023-05-24T05:07:12;12.00;97.40
3705;DHT22;1868;48.918;9.438;2023-05-24T05:09:41;11.90;97.40
3705;DHT22;1868;48.918;9.438;2023-05-24T05:12:12;11.90;97.40
3705;DHT22;1868;48.918;9.438;2023-05-24T05:14:43;12.00;97.40
3705;DHT22;1868;48.918;9.438;2023-05-24T05:17:12;12.00;97.40
3705;DHT22;1868;48.918;9.438;2023-05-24T05:19:41;12.00;97.40
3705;DHT22;1868;48.918;9.438;2023-05-24T05:22:10;12.10;97.40
3705;DHT22;1868;48.918;9.438;2023-05-24T05:24:40;12.20;97.40
3705;DHT22;1868;48.918;9.438;2023-05-24T05:27:09;12.20;97.40
3705;DHT22;1868;48.918;9.438;2023-05-24T05:29:39;12.30;97.40
3705;DHT22;1868;48.918;9.438;2023-05-24T05:32:09;12.30;97.40
3705;DHT22;1868;48.918;9.438;2023-05-24T05:34:38;12.30;97.40
3705;DHT22;1868;48.918;9.438;2023-05-24T05:37:07;12.40;97.40
3705;DHT22;1868;48.918;9.438;2023-05-24T05:39:36;12.50;97.40
3705;DHT22;1868;48.918;9.438;2023-05-24T05:42:05;12.50;97.40
3705;DHT22;1868;48.918;9.438;2023-05-24T05:44:34;12.50;97.40
3705;DHT22;1868;48.918;9.438;2023-05-24T05:47:04;12.50;97.40
3705;DHT22;1868;48.918;9.438;2023-05-24T05:49:35;12.50;97.40
3705;DHT22;1868;48.918;9.438;2023-05-24T05:52:05;12.60;97.40
3705;DHT22;1868;48.918;9.438;2023-05-24T05:54:33;12.60;97.40
3705;DHT22;1868;48.918;9.438;2023-05-24T05:57:02;12.60;97.40
3705;DHT22;1868;48.918;9.438;2023-05-24T05:59:35;12.60;97.40
3705;DHT22;1868;48.918;9.438;2023-05-24T06:02:06;12.70;97.40
3705;DHT22;1868;48.918;9.438;2023-05-24T06:04:35;12.70;97.40
3705;DHT22;1868;48.918;9.438;2023-05-24T06:07:05;12.80;97.40
3705;DHT22;1868;48.918;9.438;2023-05-24T06:09:37;12.90;97.40
3705;DHT22;1868;48.918;9.438;2023-05-24T06:12:06;12.90;97.40
3705;DHT22;1868;48.918;9.438;2023-05-24T06:14:34;13.00;97.40
3705;DHT22;1868;48.918;9.438;2023-05-24T06:17:07;13.00;97.40
3705;DHT22;1868;48.918;9.438;2023-05-24T06:19:37;13.10;97.40
3705;DHT22;1868;48.918;9.438;2023-05-24T06:22:06;13.20;97.40
3705;DHT22;1868;48.918;9.438;2023-05-24T06:24:36;13.20;97.40
3705;DHT22;1868;48.918;9.438;2023-05-24T06:27:05;13.20;97.40
3705;DHT22;1868;48.918;9.438;2023-05-24T06:29:34;13.20;97.40
3705;DHT22;1868;48.918;9.438;2023-05-24T06:32:04;13.30;97.40
3705;DHT22;1868;48.918;9.438;2023-05-24T06:34:34;13.30;97.40
3705;DHT22;1868;48.918;9.438;2023-05-24T06:37:03;13.30;97.40
3705;DHT22;1868;48.918;9.438;2023-05-24T06:39:37;13.20;97.40
3705;DHT22;1868;48.918;9.438;2023-05-24T06:42:06;13.30;97.40
3705;DHT22;1868;48.918;9.438;2023-05-24T06:44:36;13.30;97.40
3705;DHT22;1868;48.918;9.438;2023-05-24T06:47:05;13.20;97.40
3705;DHT22;1868;48.918;9.438;2023-05-24T06:49:37;13.10;97.40
3705;DHT22;1868;48.918;9.438;2023-05-24T06:52:06;13.10;97.40
3705;DHT22;1868;48.918;9.438;2023-05-24T06:54:36;13.10;97.40
3705;DHT22;1868;48.918;9.438;2023-05-24T06:57:06;13.10;97.40
3705;DHT22;1868;48.918;9.438;2023-05-24T06:59:35;13.00;97.40
3705;DHT22;1868;48.918;9.438;2023-05-24T07:02:04;13.00;97.40
3705;DHT22;1868;48.918;9.438;2023-05-24T07:04:33;13.00;97.40
3705;DHT22;1868;48.918;9.438;2023-05-24T07:07:04;12.90;97.40
3705;DHT22;1868;48.918;9.438;2023-05-24T07:09:33;13.00;97.40
3705;DHT22;1868;48.918;9.438;2023-05-24T07:12:03;13.00;97.40
3705;DHT22;1868;48.918;9.438;2023-05-24T07:14:35;13.00;97.40
3705;DHT22;1868;48.918;9.438;2023-05-24T07:17:05;13.00;97.40
3705;DHT22;1868;48.918;9.438;2023-05-24T07:19:35;13.10;97.40
3705;DHT22;1868;48.918;9.438;2023-05-24T07:22:06;13.20;97.40
3705;DHT22;1868;48.918;9.438;2023-05-24T07:24:35;13.30;97.40
3705;DHT22;1868;48.918;9.438;2023-05-24T07:27:04;13.40;97.40
3705;DHT22;1868;48.918;9.438;2023-05-24T07:29:33;13.50;97.40
3705;DHT22;1868;48.918;9.438;2023-05-24T07:32:03;13.50;97.40
3705;DHT22;1868;48.918;9.438;2023-05-24T07:34:33;13.50;97.40
3705;DHT22;1868;48.918;9.438;2023-05-24T07:37:04;13.60;97.40
3705;DHT22;1868;48.918;9.438;2023-05-24T07:39:34;13.60;97.40
3705;DHT22;1868;48.918;9.438;2023-05-24T07:42:05;13.70;97.40
3705;DHT22;1868;48.918;9.438;2023-05-24T07:44:36;13.70;97.40
3705;DHT22;1868;48.918;9.438;2023-05-24T07:47:06;13.60;97.40
3705;DHT22;1868;48.918;9.438;2023-05-24T07:49:35;13.50;97.40
3705;DHT22;1868;48.918;9.438;2023-05-24T07:52:06;13.60;97.40
3705;DHT22;1868;48.918;9.438;2023-05-24T07:54:35;13.60;97.40
3705;DHT22;1868;48.918;9.438;2023-05-24T07:57:04;13.60;97.40
3705;DHT22;1868;48.918;9.438;2023-05-24T07:59:35;13.60;97.40
3705;DHT22;1868;48.918;9.438;2023-05-24T08:02:06;13.60;97.40
3705;DHT22;1868;48.918;9.438;2023-05-24T08:04:37;13.50;97.40
3705;DHT22;1868;48.918;9.438;2023-05-24T08:07:08;13.50;97.40
3705;DHT22;1868;48.918;9.438;2023-05-24T08:09:37;13.50;97.40
3705;DHT22;1868;48.918;9.438;2023-05-24T08:12:08;13.60;97.40
3705;DHT22;1868;48.918;9.438;2023-05-24T08:14:36;13.60;97.40
3705;DHT22;1868;48.918;9.438;2023-05-24T08:17:05;13.60;97.40
3705;DHT22;1868;48.918;9.438;2023-05-24T08:19:34;13.60;97.40
3705;DHT22;1868;48.918;9.438;2023-05-24T08:22:03;13.70;97.40
3705;DHT22;1868;48.918;9.438;2023-05-24T08:24:36;13.80;97.40
3705;DHT22;1868;48.918;9.438;2023-05-24T08:27:05;13.80;97.40
3705;DHT22;1868;48.918;9.438;2023-05-24T08:29:35;13.90;97.40
3705;DHT22;1868;48.918;9.438;2023-05-24T08:32:06;13.90;97.40
3705;DHT22;1868;48.918;9.438;2023-05-24T08:34:37;13.90;97.40
3705;DHT22;1868;48.918;9.438;2023-05-24T08:37:06;14.00;97.40
3705;DHT22;1868;48.918;9.438;2023-05-24T08:39:37;14.20;97.40
3705;DHT22;1868;48.918;9.438;2023-05-24T08:42:06;14.30;97.40
3705;DHT22;1868;48.918;9.438;2023-05-24T08:44:40;14.40;97.40
3705;DHT22;1868;48.918;9.438;2023-05-24T08:47:09;14.40;97.40
3705;DHT22;1868;48.918;9.438;2023-05-24T08:49:40;14.50;97.40
3705;DHT22;1868;48.918;9.438;2023-05-24T08:52:11;14.60;97.40
3705;DHT22;1868;48.918;9.438;2023-05-24T08:54:43;14.70;97.40
3705;DHT22;1868;48.918;9.438;2023-05-24T08:57:12;14.70;97.40
3705;DHT22;1868;48.918;9.438;2023-05-24T08:59:42;14.70;97.40
3705;DHT22;1868;48.918;9.438;2023-05-24T09:02:13;14.80;97.40
3705;DHT22;1868;48.918;9.438;2023-05-24T09:04:43;14.80;97.40
3705;DHT22;1868;48.918;9.438;2023-05-24T09:07:15;14.90;97.40
3705;DHT22;1868;48.918;9.438;2023-05-24T09:09:52;15.00;97.40
3705;DHT22;1868;48.918;9.438;2023-05-24T09:12:26;15.00;97.40
3705;DHT22;1868;48.918;9.438;2023-05-24T09:15:00;15.00;97.40
3705;DHT22;1868;48.918;9.438;2023-05-24T09:17:31;15.00;97.40
3705;DHT22;1868;48.918;9.438;2023-05-24T09:20:00;15.00;97.40
3705;DHT22;1868;48.918;9.438;2023-05-24T09:22:33;14.90;97.40
3705;DHT22;1868;48.918;9.438;2023-05-24T09:25:11;14.90;97.40
3705;DHT22;1868;48.918;9.438;2023-05-24T09:27:49;14.90;97.40
3705;DHT22;1868;48.918;9.438;2023-05-24T09:30:21;14.80;97.40
3705;DHT22;1868;48.918;9.438;2023-05-24T09:32:56;14.80;97.40
3705;DHT22;1868;48.918;9.438;2023-05-24T09:35:27;14.70;97.40
3705;DHT22;1868;48.918;9.438;2023-05-24T09:37:57;14.70;97.40
3705;DHT22;1868;48.918;9.438;2023-05-24T09:40:28;14.70;97.40
3705;DHT22;1868;48.918;9.438;2023-05-24T09:43:02;14.70;97.40
3705;DHT22;1868;48.918;9.438;2023-05-24T09:45:37;14.70;97.40
3705;DHT22;1868;48.918;9.438;2023-05-24T09:48:10;14.80;97.40
3705;DHT22;1868;48.918;9.438;2023-05-24T09:50:39;14.80;97.40
3705;DHT22;1868;48.918;9.438;2023-05-24T09:53:10;14.90;97.40
3705;DHT22;1868;48.918;9.438;2023-05-24T09:55:41;15.00;97.40
3705;DHT22;1868;48.918;9.438;2023-05-24T09:58:11;15.00;97.40
3705;DHT22;1868;48.918;9.438;2023-05-24T10:00:43;15.00;97.40
3705;DHT22;1868;48.918;9.438;2023-05-24T10:03:15;15.00;97.40
3705;DHT22;1868;48.918;9.438;2023-05-24T10:05:44;15.10;97.40
3705;DHT22;1868;48.918;9.438;2023-05-24T10:08:14;15.10;97.40
3705;DHT22;1868;48.918;9.438;2023-05-24T10:10:48;15.10;97.40
3705;DHT22;1868;48.918;9.438;2023-05-24T10:13:18;15.10;97.40
3705;DHT22;1868;48.918;9.438;2023-05-24T10:15:49;15.10;97.40
3705;DHT22;1868;48.918;9.438;2023-05-24T10:18:20;15.20;97.40
3705;DHT22;1868;48.918;9.438;2023-05-24T10:20:50;15.20;97.40
3705;DHT22;1868;48.918;9.438;2023-05-24T10:23:20;15.20;97.40
3705;DHT22;1868;48.918;9.438;2023-05-24T10:25:54;15.20;97.40
3705;DHT22;1868;48.918;9.438;2023-05-24T10:28:35;15.20;97.40
3705;DHT22;1868;48.918;9.438;2023-05-24T10:31:09;15.20;97.40
3705;DHT22;1868;48.918;9.438;2023-05-24T10:33:39;15.10;97.40
3705;DHT22;1868;48.918;9.438;2023-05-24T10:36:12;15.10;97.40
3705;DHT22;1868;48.918;9.438;2023-05-24T10:38:42;15.10;97.40
3705;DHT22;1868;48.918;9.438;2023-05-24T10:41:17;15.20;97.40
3705;DHT22;1868;48.918;9.438;2023-05-24T10:43:48;15.20;97.40
3705;DHT22;1868;48.918;9.438;2023-05-24T10:46:35;15.30;97.40
3705;DHT22;1868;48.918;9.438;2023-05-24T10:49:04;15.40;97.40
3705;DHT22;1868;48.918;9.438;2023-05-24T10:51:35;15.50;97.40
3705;DHT22;1868;48.918;9.438;2023-05-24T10:54:12;15.60;97.40
3705;DHT22;1868;48.918;9.438;2023-05-24T10:56:48;15.60;97.40
3705;DHT22;1868;48.918;9.438;2023-05-24T10:59:31;15.80;97.40
3705;DHT22;1868;48.918;9.438;2023-05-24T11:02:06;15.80;97.40
3705;DHT22;1868;48.918;9.438;2023-05-24T11:04:40;15.90;97.40
3705;DHT22;1868;48.918;9.438;2023-05-24T11:07:11;16.10;97.40
3705;DHT22;1868;48.918;9.438;2023-05-24T11:09:41;16.30;97.40
3705;DHT22;1868;48.918;9.438;2023-05-24T11:12:16;16.50;97.40
3705;DHT22;1868;48.918;9.438;2023-05-24T11:14:47;16.70;96.20
3705;DHT22;1868;48.918;9.438;2023-05-24T11:17:19;16.90;95.00
3705;DHT22;1868;48.918;9.438;2023-05-24T11:19:52;17.00;94.40
3705;DHT22;1868;48.918;9.438;2023-05-24T11:22:24;17.20;92.90
3705;DHT22;1868;48.918;9.438;2023-05-24T11:24:53;17.30;92.30
3705;DHT22;1868;48.918;9.438;2023-05-24T11:27:25;17.50;92.50
3705;DHT22;1868;48.918;9.438;2023-05-24T11:29:54;17.70;92.80
3705;DHT22;1868;48.918;9.438;2023-05-24T11:32:25;17.80;90.50
3705;DHT22;1868;48.918;9.438;2023-05-24T11:34:55;18.00;90.20
3705;DHT22;1868;48.918;9.438;2023-05-24T11:37:26;18.50;91.10
3705;DHT22;1868;48.918;9.438;2023-05-24T11:40:12;19.00;85.30
3705;DHT22;1868;48.918;9.438;2023-05-24T11:42:44;19.70;83.00
3705;DHT22;1868;48.918;9.438;2023-05-24T11:45:13;20.50;82.80
3705;DHT22;1868;48.918;9.438;2023-05-24T11:47:42;21.20;77.40
3705;DHT22;1868;48.918;9.438;2023-05-24T11:50:14;21.70;77.30
3705;DHT22;1868;48.918;9.438;2023-05-24T11:52:43;22.00;73.50
3705;DHT22;1868;48.918;9.438;2023-05-24T11:55:13;22.20;70.20
3705;DHT22;1868;48.918;9.438;2023-05-24T11:57:51;22.40;70.90
3705;DHT22;1868;48.918;9.438;2023-05-24T12:00:23;22.60;70.70
3705;DHT22;1868;48.918;9.438;2023-05-24T12:02:55;22.90;70.70
3705;DHT22;1868;48.918;9.438;2023-05-24T12:05:27;22.60;66.40
3705;DHT22;1868;48.918;9.438;2023-05-24T12:08:02;22.50;63.50
3705;DHT22;1868;48.918;9.438;2023-05-24T12:10:33;22.40;63.50
3705;DHT22;1868;48.918;9.438;2023-05-24T12:13:05;22.60;61.40
3705;DHT22;1868;48.918;9.438;2023-05-24T12:15:44;22.60;62.00
3705;DHT22;1868;48.918;9.438;2023-05-24T12:18:17;22.50;64.80
3705;DHT22;1868;48.918;9.438;2023-05-24T12:20:47;22.50;68.10
3705;DHT22;1868;48.918;9.438;2023-05-24T12:23:19;22.60;65.30
3705;DHT22;1868;48.918;9.438;2023-05-24T12:25:50;22.50;63.10
3705;DHT22;1868;48.918;9.438;2023-05-24T12:28:31;22.80;65.90
3705;DHT22;1868;48.918;9.438;2023-05-24T12:31:02;23.30;64.60
3705;DHT22;1868;48.918;9.438;2023-05-24T12:33:33;22.50;57.50
3705;DHT22;1868;48.918;9.438;2023-05-24T12:36:04;22.70;61.40
3705;DHT22;1868;48.918;9.438;2023-05-24T12:38:34;23.10;62.90
3705;DHT22;1868;48.918;9.438;2023-05-24T12:41:06;23.30;64.00
3705;DHT22;1868;48.918;9.438;2023-05-24T12:43:41;23.10;61.40
3705;DHT22;1868;48.918;9.438;2023-05-24T12:46:11;22.90;62.30
3705;DHT22;1868;48.918;9.438;2023-05-24T12:48:40;22.90;63.50
3705;DHT22;1868;48.918;9.438;2023-05-24T12:51:09;23.10;59.20
3705;DHT22;1868;48.918;9.438;2023-05-24T12:53:40;23.00;63.10
3705;DHT22;1868;48.918;9.438;2023-05-24T12:56:09;22.60;60.50
3705;DHT22;1868;48.918;9.438;2023-05-24T12:58:38;22.60;62.50
3705;DHT22;1868;48.918;9.438;2023-05-24T13:01:08;22.20;59.30
3705;DHT22;1868;48.918;9.438;2023-05-24T13:03:38;22.20;63.30
3705;DHT22;1868;48.918;9.438;2023-05-24T13:06:07;21.80;59.30
3705;DHT22;1868;48.918;9.438;2023-05-24T13:08:36;21.70;61.20
3705;DHT22;1868;48.918;9.438;2023-05-24T13:11:07;21.60;58.30
3705;DHT22;1868;48.918;9.438;2023-05-24T13:13:36;21.50;57.80
3705;DHT22;1868;48.918;9.438;2023-05-24T13:16:06;21.60;59.00
3705;DHT22;1868;48.918;9.438;2023-05-24T13:18:37;21.90;59.20
3705;DHT22;1868;48.918;9.438;2023-05-24T13:21:06;22.30;57.50
3705;DHT22;1868;48.918;9.438;2023-05-24T13:23:38;22.60;60.50
3705;DHT22;1868;48.918;9.438;2023-05-24T13:26:09;22.80;59.50
3705;DHT22;1868;48.918;9.438;2023-05-24T13:28:38;22.70;57.00
3705;DHT22;1868;48.918;9.438;2023-05-24T13:31:30;22.80;55.50
3705;DHT22;1868;48.918;9.438;2023-05-24T13:33:59;22.80;57.20
3705;DHT22;1868;48.918;9.438;2023-05-24T13:36:28;22.60;58.60
3705;DHT22;1868;48.918;9.438;2023-05-24T13:38:57;22.50;57.80
3705;DHT22;1868;48.918;9.438;2023-05-24T13:41:29;22.60;58.90
3705;DHT22;1868;48.918;9.438;2023-05-24T13:43:59;22.50;60.10
3705;DHT22;1868;48.918;9.438;2023-05-24T13:46:30;22.40;59.00
3705;DHT22;1868;48.918;9.438;2023-05-24T13:49:02;22.30;61.60
3705;DHT22;1868;48.918;9.438;2023-05-24T13:51:32;22.30;60.30
3705;DHT22;1868;48.918;9.438;2023-05-24T13:54:06;22.30;59.50
3705;DHT22;1868;48.918;9.438;2023-05-24T13:56:35;22.30;60.10
3705;DHT22;1868;48.918;9.438;2023-05-24T13:59:07;22.20;60.30
3705;DHT22;1868;48.918;9.438;2023-05-24T14:01:39;22.30;58.70
3705;DHT22;1868;48.918;9.438;2023-05-24T14:04:08;22.30;60.30
3705;DHT22;1868;48.918;9.438;2023-05-24T14:06:37;22.50;60.70
3705;DHT22;1868;48.918;9.438;2023-05-24T14:09:06;22.30;62.70
3705;DHT22;1868;48.918;9.438;2023-05-24T14:11:35;22.10;62.30
3705;DHT22;1868;48.918;9.438;2023-05-24T14:14:04;21.80;61.00
3705;DHT22;1868;48.918;9.438;2023-05-24T14:16:54;21.40;60.10
3705;DHT22;1868;48.918;9.438;2023-05-24T14:19:24;21.50;62.00
3705;DHT22;1868;48.918;9.438;2023-05-24T14:21:53;21.40;61.20
3705;DHT22;1868;48.918;9.438;2023-05-24T14:24:23;21.40;62.30
3705;DHT22;1868;48.918;9.438;2023-05-24T14:26:51;21.30;58.40
3705;DHT22;1868;48.918;9.438;2023-05-24T14:29:20;21.50;64.20
3705;DHT22;1868;48.918;9.438;2023-05-24T14:31:49;21.30;63.30
3705;DHT22;1868;48.918;9.438;2023-05-24T14:34:19;21.10;61.60
3705;DHT22;1868;48.918;9.438;2023-05-24T14:36:49;20.90;65.00
3705;DHT22;1868;48.918;9.438;2023-05-24T14:39:20;20.70;67.60
3705;DHT22;1868;48.918;9.438;2023-05-24T14:41:49;20.40;65.90
3705;DHT22;1868;48.918;9.438;2023-05-24T14:44:17;20.00;64.20
3705;DHT22;1868;48.918;9.438;2023-05-24T14:46:47;19.60;63.80
3705;DHT22;1868;48.918;9.438;2023-05-24T14:49:20;19.50;65.10
3705;DHT22;1868;48.918;9.438;2023-05-24T14:51:49;19.40;64.60
3705;DHT22;1868;48.918;9.438;2023-05-24T14:54:18;19.20;66.40
3705;DHT22;1868;48.918;9.438;2023-05-24T14:56:48;19.20;67.20
3705;DHT22;1868;48.918;9.438;2023-05-24T14:59:17;19.20;65.70
3705;DHT22;1868;48.918;9.438;2023-05-24T15:01:45;19.30;67.60
3705;DHT22;1868;48.918;9.438;2023-05-24T15:04:15;19.30;66.30
3705;DHT22;1868;48.918;9.438;2023-05-24T15:06:45;19.40;66.30
3705;DHT22;1868;48.918;9.438;2023-05-24T15:09:14;19.60;69.60
3705;DHT22;1868;48.918;9.438;2023-05-24T15:11:43;19.80;67.70
3705;DHT22;1868;48.918;9.438;2023-05-24T15:14:13;19.90;70.40
3705;DHT22;1868;48.918;9.438;2023-05-24T15:16:42;19.80;69.40
3705;DHT22;1868;48.918;9.438;2023-05-24T15:19:11;19.70;70.00
3705;DHT22;1868;48.918;9.438;2023-05-24T15:21:40;19.60;69.80
3705;DHT22;1868;48.918;9.438;2023-05-24T15:24:11;19.40;69.20
3705;DHT22;1868;48.918;9.438;2023-05-24T15:26:41;19.20;71.10
3705;DHT22;1868;48.918;9.438;2023-05-24T15:29:09;19.00;70.20
3705;DHT22;1868;48.918;9.438;2023-05-24T15:31:38;18.90;71.50
3705;DHT22;1868;48.918;9.438;2023-05-24T15:34:07;18.80;70.90
3705;DHT22;1868;48.918;9.438;2023-05-24T15:36:36;18.70;70.00
3705;DHT22;1868;48.918;9.438;2023-05-24T15:39:05;18.70;73.90
3705;DHT22;1868;48.918;9.438;2023-05-24T15:41:35;18.80;72.00
3705;DHT22;1868;48.918;9.438;2023-05-24T15:44:04;18.80;71.10
3705;DHT22;1868;48.918;9.438;2023-05-24T15:46:35;18.80;70.20
3705;DHT22;1868;48.918;9.438;2023-05-24T15:49:04;18.60;72.00
3705;DHT22;1868;48.918;9.438;2023-05-24T15:51:33;18.50;73.50
3705;DHT22;1868;48.918;9.438;2023-05-24T15:54:05;18.40;73.50
3705;DHT22;1868;48.918;9.438;2023-05-24T15:56:35;18.30;74.80
3705;DHT22;1868;48.918;9.438;2023-05-24T15:59:04;18.20;74.50
3705;DHT22;1868;48.918;9.438;2023-05-24T16:01:33;18.20;74.10
3705;DHT22;1868;48.918;9.438;2023-05-24T16:04:03;18.30;74.50
3705;DHT22;1868;48.918;9.438;2023-05-24T16:06:31;18.30;75.00
3705;DHT22;1868;48.918;9.438;2023-05-24T16:09:00;18.30;74.60
3705;DHT22;1868;48.918;9.438;2023-05-24T16:11:31;18.20;74.50
3705;DHT22;1868;48.918;9.438;2023-05-24T16:14:01;18.00;75.00
3705;DHT22;1868;48.918;9.438;2023-05-24T16:16:31;17.90;75.40
3705;DHT22;1868;48.918;9.438;2023-05-24T16:19:00;17.80;75.90
3705;DHT22;1868;48.918;9.438;2023-05-24T16:21:29;17.80;76.50
3705;DHT22;1868;48.918;9.438;2023-05-24T16:23:59;17.90;76.50
3705;DHT22;1868;48.918;9.438;2023-05-24T16:26:29;17.80;76.10
3705;DHT22;1868;48.918;9.438;2023-05-24T16:28:58;17.70;75.60